sensor_id;sensor_type;location;lat;lon;timestamp;P1;durP1;ratioP1;P2;durP2;ratioP2
10894;SDS011;5500;49.886;8.074;2023-02-18T00:01:10;3.70;;;3.40;;
10894;SDS011;5500;49.886;8.074;2023-02-18T00:03:39;3.90;;;3.60;;
10894;SDS011;5500;49.886;8.074;2023-02-18T00:06:11;3.87;;;3.57;;
10894;SDS011;5500;49.886;8.074;2023-02-18T00:08:40;4.00;;;3.70;;
10894;SDS011;5500;49.886;8.074;2023-02-18T00:11:09;7.37;;;3.80;;
10894;SDS011;5500;49.886;8.074;2023-02-18T00:13:38;4.50;;;4.13;;
10894;SDS011;5500;49.886;8.074;2023-02-18T00:16:07;3.43;;;3.13;;
10894;SDS011;5500;49.886;8.074;2023-02-18T00:18:36;3.73;;;3.43;;
10894;SDS011;5500;49.886;8.074;2023-02-18T00:21:05;3.93;;;3.53;;
10894;SDS011;5500;49.886;8.074;2023-02-18T00:23:33;3.30;;;3.00;;
10894;SDS011;5500;49.886;8.074;2023-02-18T00:26:04;3.90;;;3.50;;
10894;SDS011;5500;49.886;8.074;2023-02-18T00:28:33;3.30;;;3.00;;
10894;SDS011;5500;49.886;8.074;2023-02-18T00:31:06;2.73;;;2.53;;
10894;SDS011;5500;49.886;8.074;2023-02-18T00:33:34;3.27;;;2.97;;
10894;SDS011;5500;49.886;8.074;2023-02-18T00:36:02;4.23;;;2.87;;
10894;SDS011;5500;49.886;8.074;2023-02-18T00:38:32;2.67;;;2.47;;
10894;SDS011;5500;49.886;8.074;2023-02-18T00:41:00;3.50;;;2.40;;
10894;SDS011;5500;49.886;8.074;2023-02-18T00:43:32;3.23;;;2.53;;
10894;SDS011;5500;49.886;8.074;2023-02-18T00:46:05;2.40;;;1.93;;
10894;SDS011;5500;49.886;8.074;2023-02-18T00:48:34;2.77;;;1.73;;
10894;SDS011;5500;49.886;8.074;2023-02-18T00:51:16;2.10;;;1.87;;
10894;SDS011;5500;49.886;8.074;2023-02-18T00:53:46;2.23;;;1.90;;
10894;SDS011;5500;49.886;8.074;2023-02-18T00:56:20;1.73;;;1.63;;
10894;SDS011;5500;49.886;8.074;2023-02-18T00:59:04;2.63;;;2.10;;
10894;SDS011;5500;49.886;8.074;2023-02-18T01:01:36;3.03;;;2.13;;
10894;SDS011;5500;49.886;8.074;2023-02-18T01:04:04;2.80;;;1.70;;
10894;SDS011;5500;49.886;8.074;2023-02-18T01:06:36;1.93;;;1.70;;
10894;SDS011;5500;49.886;8.074;2023-02-18T01:09:04;1.60;;;1.50;;
10894;SDS011;5500;49.886;8.074;2023-02-18T01:11:36;1.70;;;1.57;;
10894;SDS011;5500;49.886;8.074;2023-02-18T01:14:03;3.37;;;1.73;;
10894;SDS011;5500;49.886;8.074;2023-02-18T01:16:37;2.33;;;1.70;;
10894;SDS011;5500;49.886;8.074;2023-02-18T01:19:06;2.20;;;1.70;;
10894;SDS011;5500;49.886;8.074;2023-02-18T01:21:37;3.07;;;1.67;;
10894;SDS011;5500;49.886;8.074;2023-02-18T01:24:11;1.60;;;1.50;;
10894;SDS011;5500;49.886;8.074;2023-02-18T01:26:39;1.70;;;1.53;;
10894;SDS011;5500;49.886;8.074;2023-02-18T01:29:07;1.73;;;1.40;;
10894;SDS011;5500;49.886;8.074;2023-02-18T01:31:34;4.10;;;1.63;;
10894;SDS011;5500;49.886;8.074;2023-02-18T01:34:04;1.60;;;1.50;;
10894;SDS011;5500;49.886;8.074;2023-02-18T01:36:32;1.50;;;1.40;;
10894;SDS011;5500;49.886;8.074;2023-02-18T01:39:00;1.50;;;1.40;;
10894;SDS011;5500;49.886;8.074;2023-02-18T01:41:28;1.57;;;1.47;;
10894;SDS011;5500;49.886;8.074;2023-02-18T01:44:11;2.10;;;1.90;;
10894;SDS011;5500;49.886;8.074;2023-02-18T01:46:47;1.90;;;1.70;;
10894;SDS011;5500;49.886;8.074;2023-02-18T01:49:17;2.40;;;2.20;;
10894;SDS011;5500;49.886;8.074;2023-02-18T01:51:49;2.33;;;2.13;;
10894;SDS011;5500;49.886;8.074;2023-02-18T01:54:20;2.13;;;1.97;;
10894;SDS011;5500;49.886;8.074;2023-02-18T01:56:52;4.70;;;1.80;;
10894;SDS011;5500;49.886;8.074;2023-02-18T01:59:24;1.73;;;1.63;;
10894;SDS011;5500;49.886;8.074;2023-02-18T02:01:55;3.33;;;1.87;;
10894;SDS011;5500;49.886;8.074;2023-02-18T02:04:24;2.20;;;2.00;;
10894;SDS011;5500;49.886;8.074;2023-02-18T02:06:53;1.80;;;1.70;;
10894;SDS011;5500;49.886;8.074;2023-02-18T02:09:22;1.83;;;1.73;;
10894;SDS011;5500;49.886;8.074;2023-02-18T02:15:05;1.70;;;1.60;;
10894;SDS011;5500;49.886;8.074;2023-02-18T02:17:49;1.63;;;1.53;;
10894;SDS011;5500;49.886;8.074;2023-02-18T02:20:41;1.60;;;1.50;;
10894;SDS011;5500;49.886;8.074;2023-02-18T02:23:27;1.67;;;1.50;;
10894;SDS011;5500;49.886;8.074;2023-02-18T02:26:11;1.63;;;1.53;;
10894;SDS011;5500;49.886;8.074;2023-02-18T02:29:04;2.17;;;1.57;;
10894;SDS011;5500;49.886;8.074;2023-02-18T02:32:00;1.80;;;1.70;;
10894;SDS011;5500;49.886;8.074;2023-02-18T02:37:25;2.03;;;1.83;;
10894;SDS011;5500;49.886;8.074;2023-02-18T02:39:59;1.83;;;1.73;;
10894;SDS011;5500;49.886;8.074;2023-02-18T02:42:33;2.33;;;2.13;;
10894;SDS011;5500;49.886;8.074;2023-02-18T02:45:09;4.43;;;2.30;;
10894;SDS011;5500;49.886;8.074;2023-02-18T02:47:43;2.40;;;2.20;;
10894;SDS011;5500;49.886;8.074;2023-02-18T02:50:14;2.33;;;2.13;;
10894;SDS011;5500;49.886;8.074;2023-02-18T02:52:46;2.07;;;1.87;;
10894;SDS011;5500;49.886;8.074;2023-02-18T02:55:16;2.13;;;1.93;;
10894;SDS011;5500;49.886;8.074;2023-02-18T02:57:49;2.40;;;2.00;;
10894;SDS011;5500;49.886;8.074;2023-02-18T03:00:17;2.47;;;1.87;;
10894;SDS011;5500;49.886;8.074;2023-02-18T03:02:51;2.40;;;1.93;;
10894;SDS011;5500;49.886;8.074;2023-02-18T03:05:41;1.83;;;1.73;;
10894;SDS011;5500;49.886;8.074;2023-02-18T03:08:20;1.60;;;1.50;;
10894;SDS011;5500;49.886;8.074;2023-02-18T03:10:58;1.93;;;1.50;;
10894;SDS011;5500;49.886;8.074;2023-02-18T03:13:34;1.57;;;1.47;;
10894;SDS011;5500;49.886;8.074;2023-02-18T03:16:10;1.70;;;1.60;;
10894;SDS011;5500;49.886;8.074;2023-02-18T03:18:42;1.67;;;1.50;;
10894;SDS011;5500;49.886;8.074;2023-02-18T03:21:14;1.60;;;1.50;;
10894;SDS011;5500;49.886;8.074;2023-02-18T03:23:44;1.33;;;1.30;;
10894;SDS011;5500;49.886;8.074;2023-02-18T03:26:13;1.03;;;1.03;;
10894;SDS011;5500;49.886;8.074;2023-02-18T03:28:41;1.80;;;1.70;;
10894;SDS011;5500;49.886;8.074;2023-02-18T03:31:11;1.30;;;1.20;;
10894;SDS011;5500;49.886;8.074;2023-02-18T03:33:42;1.27;;;1.17;;
10894;SDS011;5500;49.886;8.074;2023-02-18T03:36:11;0.83;;;0.83;;
10894;SDS011;5500;49.886;8.074;2023-02-18T03:38:41;0.90;;;0.90;;
10894;SDS011;5500;49.886;8.074;2023-02-18T03:41:10;0.47;;;0.47;;
10894;SDS011;5500;49.886;8.074;2023-02-18T03:43:39;1.30;;;0.60;;
10894;SDS011;5500;49.886;8.074;2023-02-18T03:46:06;0.70;;;0.70;;
10894;SDS011;5500;49.886;8.074;2023-02-18T03:48:34;0.73;;;0.73;;
10894;SDS011;5500;49.886;8.074;2023-02-18T03:51:02;0.60;;;0.50;;
10894;SDS011;5500;49.886;8.074;2023-02-18T03:53:30;1.17;;;0.63;;
10894;SDS011;5500;49.886;8.074;2023-02-18T03:55:59;0.50;;;0.50;;
10894;SDS011;5500;49.886;8.074;2023-02-18T03:58:27;0.30;;;0.30;;
10894;SDS011;5500;49.886;8.074;2023-02-18T04:00:54;0.37;;;0.37;;
10894;SDS011;5500;49.886;8.074;2023-02-18T04:03:22;0.70;;;0.70;;
10894;SDS011;5500;49.886;8.074;2023-02-18T04:05:50;0.50;;;0.43;;
10894;SDS011;5500;49.886;8.074;2023-02-18T04:08:17;0.73;;;0.70;;
10894;SDS011;5500;49.886;8.074;2023-02-18T04:10:45;1.47;;;0.90;;
10894;SDS011;5500;49.886;8.074;2023-02-18T04:13:14;0.80;;;0.80;;
10894;SDS011;5500;49.886;8.074;2023-02-18T04:15:42;0.70;;;0.70;;
10894;SDS011;5500;49.886;8.074;2023-02-18T04:18:10;0.57;;;0.57;;
10894;SDS011;5500;49.886;8.074;2023-02-18T04:20:38;0.70;;;0.70;;
10894;SDS011;5500;49.886;8.074;2023-02-18T04:23:06;0.80;;;0.80;;
10894;SDS011;5500;49.886;8.074;2023-02-18T04:25:34;1.30;;;1.20;;
10894;SDS011;5500;49.886;8.074;2023-02-18T04:28:02;1.57;;;1.47;;
10894;SDS011;5500;49.886;8.074;2023-02-18T04:30:31;2.00;;;1.90;;
10894;SDS011;5500;49.886;8.074;2023-02-18T04:32:59;2.13;;;1.70;;
10894;SDS011;5500;49.886;8.074;2023-02-18T04:35:27;1.70;;;1.60;;
10894;SDS011;5500;49.886;8.074;2023-02-18T04:37:54;2.07;;;1.40;;
10894;SDS011;5500;49.886;8.074;2023-02-18T04:40:22;1.30;;;1.20;;
10894;SDS011;5500;49.886;8.074;2023-02-18T04:42:51;1.20;;;1.20;;
10894;SDS011;5500;49.886;8.074;2023-02-18T04:45:19;1.97;;;1.20;;
10894;SDS011;5500;49.886;8.074;2023-02-18T04:47:48;1.87;;;1.30;;
10894;SDS011;5500;49.886;8.074;2023-02-18T04:50:16;1.20;;;1.10;;
10894;SDS011;5500;49.886;8.074;2023-02-18T04:52:44;1.30;;;1.20;;
10894;SDS011;5500;49.886;8.074;2023-02-18T04:55:11;1.07;;;1.07;;
10894;SDS011;5500;49.886;8.074;2023-02-18T04:57:39;1.10;;;1.10;;
10894;SDS011;5500;49.886;8.074;2023-02-18T05:00:07;2.23;;;1.20;;
10894;SDS011;5500;49.886;8.074;2023-02-18T05:02:36;0.83;;;0.83;;
10894;SDS011;5500;49.886;8.074;2023-02-18T05:05:05;0.93;;;0.83;;
10894;SDS011;5500;49.886;8.074;2023-02-18T05:07:33;0.93;;;0.93;;
10894;SDS011;5500;49.886;8.074;2023-02-18T05:10:00;1.20;;;1.10;;
10894;SDS011;5500;49.886;8.074;2023-02-18T05:12:28;0.90;;;0.90;;
10894;SDS011;5500;49.886;8.074;2023-02-18T05:14:56;1.50;;;1.20;;
10894;SDS011;5500;49.886;8.074;2023-02-18T05:17:23;1.37;;;1.27;;
10894;SDS011;5500;49.886;8.074;2023-02-18T05:19:51;1.40;;;1.30;;
10894;SDS011;5500;49.886;8.074;2023-02-18T05:22:20;1.57;;;1.30;;
10894;SDS011;5500;49.886;8.074;2023-02-18T05:24:48;2.73;;;1.97;;
10894;SDS011;5500;49.886;8.074;2023-02-18T05:27:15;1.80;;;1.70;;
10894;SDS011;5500;49.886;8.074;2023-02-18T05:29:43;2.17;;;1.93;;
10894;SDS011;5500;49.886;8.074;2023-02-18T05:32:11;2.20;;;2.00;;
10894;SDS011;5500;49.886;8.074;2023-02-18T05:34:38;3.20;;;2.23;;
10894;SDS011;5500;49.886;8.074;2023-02-18T05:37:06;2.73;;;1.93;;
10894;SDS011;5500;49.886;8.074;2023-02-18T05:39:36;2.43;;;1.90;;
10894;SDS011;5500;49.886;8.074;2023-02-18T05:42:04;2.60;;;1.80;;
10894;SDS011;5500;49.886;8.074;2023-02-18T05:44:32;2.90;;;2.20;;
10894;SDS011;5500;49.886;8.074;2023-02-18T05:46:59;2.03;;;1.77;;
10894;SDS011;5500;49.886;8.074;2023-02-18T05:49:29;2.53;;;2.33;;
10894;SDS011;5500;49.886;8.074;2023-02-18T05:51:57;2.70;;;2.40;;
10894;SDS011;5500;49.886;8.074;2023-02-18T06:07:11;2.63;;;2.27;;
10894;SDS011;5500;49.886;8.074;2023-02-18T06:09:39;2.80;;;2.50;;
10894;SDS011;5500;49.886;8.074;2023-02-18T06:12:07;4.00;;;2.70;;
10894;SDS011;5500;49.886;8.074;2023-02-18T06:14:35;2.83;;;2.53;;
10894;SDS011;5500;49.886;8.074;2023-02-18T06:17:02;3.10;;;2.80;;
10894;SDS011;5500;49.886;8.074;2023-02-18T06:19:30;3.00;;;2.70;;
10894;SDS011;5500;49.886;8.074;2023-02-18T06:21:58;2.90;;;2.60;;
10894;SDS011;5500;49.886;8.074;2023-02-18T06:24:27;2.60;;;2.40;;
10894;SDS011;5500;49.886;8.074;2023-02-18T06:26:55;2.67;;;2.47;;
10894;SDS011;5500;49.886;8.074;2023-02-18T06:29:22;2.50;;;2.30;;
10894;SDS011;5500;49.886;8.074;2023-02-18T06:31:50;2.37;;;2.17;;
10894;SDS011;5500;49.886;8.074;2023-02-18T06:34:18;2.50;;;2.30;;
10894;SDS011;5500;49.886;8.074;2023-02-18T06:36:46;2.50;;;2.30;;
10894;SDS011;5500;49.886;8.074;2023-02-18T06:39:14;5.40;;;2.70;;
10894;SDS011;5500;49.886;8.074;2023-02-18T06:41:43;3.87;;;2.53;;
10894;SDS011;5500;49.886;8.074;2023-02-18T06:44:11;3.47;;;2.50;;
10894;SDS011;5500;49.886;8.074;2023-02-18T06:46:40;4.43;;;2.73;;
10894;SDS011;5500;49.886;8.074;2023-02-18T06:49:08;2.70;;;2.50;;
10894;SDS011;5500;49.886;8.074;2023-02-18T06:51:35;5.20;;;2.40;;
10894;SDS011;5500;49.886;8.074;2023-02-18T06:54:03;3.37;;;2.80;;
10894;SDS011;5500;49.886;8.074;2023-02-18T06:56:33;3.70;;;2.80;;
10894;SDS011;5500;49.886;8.074;2023-02-18T06:59:08;6.03;;;2.73;;
10894;SDS011;5500;49.886;8.074;2023-02-18T07:01:36;2.97;;;2.47;;
10894;SDS011;5500;49.886;8.074;2023-02-18T07:04:04;3.87;;;3.10;;
10894;SDS011;5500;49.886;8.074;2023-02-18T07:11:29;4.30;;;3.10;;
10894;SDS011;5500;49.886;8.074;2023-02-18T07:13:57;2.90;;;2.60;;
10894;SDS011;5500;49.886;8.074;2023-02-18T07:16:26;3.33;;;3.00;;
10894;SDS011;5500;49.886;8.074;2023-02-18T07:18:54;3.63;;;2.93;;
10894;SDS011;5500;49.886;8.074;2023-02-18T07:21:22;3.77;;;3.03;;
10894;SDS011;5500;49.886;8.074;2023-02-18T07:23:49;3.80;;;2.80;;
10894;SDS011;5500;49.886;8.074;2023-02-18T07:26:17;4.90;;;3.00;;
10894;SDS011;5500;49.886;8.074;2023-02-18T07:28:45;3.13;;;2.87;;
10894;SDS011;5500;49.886;8.074;2023-02-18T07:31:13;3.30;;;3.00;;
10894;SDS011;5500;49.886;8.074;2023-02-18T07:33:42;3.30;;;3.00;;
10894;SDS011;5500;49.886;8.074;2023-02-18T07:36:10;3.27;;;2.97;;
10894;SDS011;5500;49.886;8.074;2023-02-18T07:38:38;3.20;;;2.90;;
10894;SDS011;5500;49.886;8.074;2023-02-18T07:41:11;4.73;;;3.53;;
10894;SDS011;5500;49.886;8.074;2023-02-18T07:43:41;6.40;;;3.57;;
10894;SDS011;5500;49.886;8.074;2023-02-18T07:46:09;3.80;;;3.17;;
10894;SDS011;5500;49.886;8.074;2023-02-18T07:48:38;4.17;;;3.40;;
10894;SDS011;5500;49.886;8.074;2023-02-18T07:51:08;3.40;;;3.10;;
10894;SDS011;5500;49.886;8.074;2023-02-18T07:53:38;4.00;;;3.67;;
10894;SDS011;5500;49.886;8.074;2023-02-18T07:56:06;3.57;;;3.27;;
10894;SDS011;5500;49.886;8.074;2023-02-18T07:58:36;4.37;;;3.20;;
10894;SDS011;5500;49.886;8.074;2023-02-18T08:01:05;5.20;;;3.40;;
10894;SDS011;5500;49.886;8.074;2023-02-18T08:03:33;4.13;;;3.83;;
10894;SDS011;5500;49.886;8.074;2023-02-18T08:06:01;4.43;;;3.77;;
10894;SDS011;5500;49.886;8.074;2023-02-18T08:08:31;3.47;;;3.17;;
10894;SDS011;5500;49.886;8.074;2023-02-18T08:11:03;3.77;;;2.77;;
10894;SDS011;5500;49.886;8.074;2023-02-18T08:13:44;2.90;;;2.60;;
10894;SDS011;5500;49.886;8.074;2023-02-18T08:16:12;2.60;;;2.40;;
10894;SDS011;5500;49.886;8.074;2023-02-18T08:18:40;5.47;;;3.00;;
10894;SDS011;5500;49.886;8.074;2023-02-18T08:21:09;2.80;;;2.60;;
10894;SDS011;5500;49.886;8.074;2023-02-18T08:23:38;3.47;;;3.17;;
10894;SDS011;5500;49.886;8.074;2023-02-18T08:26:06;3.77;;;3.30;;
10894;SDS011;5500;49.886;8.074;2023-02-18T08:28:36;4.93;;;3.53;;
10894;SDS011;5500;49.886;8.074;2023-02-18T08:31:04;2.90;;;2.60;;
10894;SDS011;5500;49.886;8.074;2023-02-18T08:33:32;3.07;;;2.77;;
10894;SDS011;5500;49.886;8.074;2023-02-18T08:36:00;3.47;;;2.17;;
10894;SDS011;5500;49.886;8.074;2023-02-18T08:38:28;2.50;;;2.00;;
10894;SDS011;5500;49.886;8.074;2023-02-18T08:41:02;2.13;;;1.87;;
10894;SDS011;5500;49.886;8.074;2023-02-18T08:43:30;3.43;;;1.73;;
10894;SDS011;5500;49.886;8.074;2023-02-18T08:45:58;1.63;;;1.53;;
10894;SDS011;5500;49.886;8.074;2023-02-18T08:48:27;3.23;;;1.43;;
10894;SDS011;5500;49.886;8.074;2023-02-18T08:50:55;1.90;;;1.70;;
10894;SDS011;5500;49.886;8.074;2023-02-18T08:53:23;2.40;;;1.30;;
10894;SDS011;5500;49.886;8.074;2023-02-18T08:55:50;1.80;;;1.23;;
10894;SDS011;5500;49.886;8.074;2023-02-18T08:58:20;2.10;;;1.23;;
10894;SDS011;5500;49.886;8.074;2023-02-18T09:00:47;1.63;;;0.80;;
10894;SDS011;5500;49.886;8.074;2023-02-18T09:03:15;0.80;;;0.80;;
10894;SDS011;5500;49.886;8.074;2023-02-18T09:05:43;1.50;;;1.10;;
10894;SDS011;5500;49.886;8.074;2023-02-18T09:08:13;2.20;;;1.20;;
10894;SDS011;5500;49.886;8.074;2023-02-18T09:10:41;1.57;;;0.90;;
10894;SDS011;5500;49.886;8.074;2023-02-18T09:13:11;3.00;;;1.00;;
10894;SDS011;5500;49.886;8.074;2023-02-18T09:15:40;1.40;;;0.97;;
10894;SDS011;5500;49.886;8.074;2023-02-18T09:18:08;1.87;;;0.90;;
10894;SDS011;5500;49.886;8.074;2023-02-18T09:20:37;5.47;;;1.50;;
10894;SDS011;5500;49.886;8.074;2023-02-18T09:23:06;1.47;;;1.20;;
10894;SDS011;5500;49.886;8.074;2023-02-18T09:25:33;1.20;;;1.10;;
10894;SDS011;5500;49.886;8.074;2023-02-18T09:28:04;2.23;;;1.07;;
10894;SDS011;5500;49.886;8.074;2023-02-18T09:30:31;1.33;;;1.20;;
10894;SDS011;5500;49.886;8.074;2023-02-18T09:33:00;1.70;;;1.23;;
10894;SDS011;5500;49.886;8.074;2023-02-18T09:35:28;1.13;;;1.03;;
10894;SDS011;5500;49.886;8.074;2023-02-18T09:37:56;2.50;;;1.20;;
10894;SDS011;5500;49.886;8.074;2023-02-18T09:40:25;1.60;;;1.50;;
10894;SDS011;5500;49.886;8.074;2023-02-18T09:42:54;1.90;;;1.50;;
10894;SDS011;5500;49.886;8.074;2023-02-18T09:45:25;1.40;;;1.20;;
10894;SDS011;5500;49.886;8.074;2023-02-18T09:47:56;2.07;;;1.20;;
10894;SDS011;5500;49.886;8.074;2023-02-18T09:50:27;1.77;;;1.20;;
10894;SDS011;5500;49.886;8.074;2023-02-18T09:52:58;1.83;;;1.33;;
10894;SDS011;5500;49.886;8.074;2023-02-18T09:55:27;1.23;;;1.03;;
10894;SDS011;5500;49.886;8.074;2023-02-18T09:57:57;1.97;;;1.10;;
10894;SDS011;5500;49.886;8.074;2023-02-18T10:00:29;1.87;;;1.07;;
10894;SDS011;5500;49.886;8.074;2023-02-18T10:03:00;1.53;;;1.10;;
10894;SDS011;5500;49.886;8.074;2023-02-18T10:05:32;3.10;;;1.13;;
10894;SDS011;5500;49.886;8.074;2023-02-18T10:08:01;1.77;;;1.20;;
10894;SDS011;5500;49.886;8.074;2023-02-18T10:10:34;1.07;;;0.97;;
10894;SDS011;5500;49.886;8.074;2023-02-18T10:13:05;1.80;;;1.13;;
10894;SDS011;5500;49.886;8.074;2023-02-18T10:15:37;2.33;;;1.30;;
10894;SDS011;5500;49.886;8.074;2023-02-18T10:18:05;2.57;;;1.40;;
10894;SDS011;5500;49.886;8.074;2023-02-18T10:20:46;1.63;;;1.30;;
10894;SDS011;5500;49.886;8.074;2023-02-18T10:23:15;2.00;;;1.30;;
10894;SDS011;5500;49.886;8.074;2023-02-18T10:25:44;1.30;;;1.17;;
10894;SDS011;5500;49.886;8.074;2023-02-18T10:28:12;1.90;;;1.20;;
10894;SDS011;5500;49.886;8.074;2023-02-18T10:30:44;2.07;;;1.50;;
10894;SDS011;5500;49.886;8.074;2023-02-18T10:33:16;1.80;;;0.90;;
10894;SDS011;5500;49.886;8.074;2023-02-18T10:35:56;1.20;;;1.10;;
10894;SDS011;5500;49.886;8.074;2023-02-18T10:38:31;3.33;;;1.10;;
10894;SDS011;5500;49.886;8.074;2023-02-18T10:41:03;2.47;;;1.40;;
10894;SDS011;5500;49.886;8.074;2023-02-18T10:43:35;2.07;;;1.10;;
10894;SDS011;5500;49.886;8.074;2023-02-18T10:46:07;1.90;;;1.27;;
10894;SDS011;5500;49.886;8.074;2023-02-18T10:48:49;2.73;;;1.30;;
10894;SDS011;5500;49.886;8.074;2023-02-18T10:51:31;1.77;;;1.43;;
10894;SDS011;5500;49.886;8.074;2023-02-18T10:54:00;1.40;;;1.30;;
10894;SDS011;5500;49.886;8.074;2023-02-18T10:56:33;1.33;;;1.20;;
10894;SDS011;5500;49.886;8.074;2023-02-18T10:59:09;3.13;;;1.00;;
10894;SDS011;5500;49.886;8.074;2023-02-18T11:01:41;1.93;;;1.37;;
10894;SDS011;5500;49.886;8.074;2023-02-18T11:04:13;1.63;;;1.40;;
10894;SDS011;5500;49.886;8.074;2023-02-18T11:06:44;1.70;;;1.37;;
10894;SDS011;5500;49.886;8.074;2023-02-18T11:09:22;1.70;;;1.40;;
10894;SDS011;5500;49.886;8.074;2023-02-18T11:11:57;1.80;;;1.20;;
10894;SDS011;5500;49.886;8.074;2023-02-18T11:14:37;3.67;;;1.20;;
10894;SDS011;5500;49.886;8.074;2023-02-18T11:17:09;2.40;;;1.27;;
10894;SDS011;5500;49.886;8.074;2023-02-18T11:19:51;2.23;;;1.10;;
10894;SDS011;5500;49.886;8.074;2023-02-18T11:22:22;3.13;;;1.10;;
10894;SDS011;5500;49.886;8.074;2023-02-18T11:24:53;2.43;;;1.13;;
10894;SDS011;5500;49.886;8.074;2023-02-18T11:27:23;4.73;;;1.30;;
10894;SDS011;5500;49.886;8.074;2023-02-18T11:29:55;4.27;;;1.50;;
10894;SDS011;5500;49.886;8.074;2023-02-18T11:32:26;2.80;;;1.27;;
10894;SDS011;5500;49.886;8.074;2023-02-18T11:34:55;3.10;;;1.23;;
10894;SDS011;5500;49.886;8.074;2023-02-18T11:37:24;4.17;;;1.40;;
10894;SDS011;5500;49.886;8.074;2023-02-18T11:39:53;3.07;;;1.20;;
10894;SDS011;5500;49.886;8.074;2023-02-18T11:42:22;3.87;;;1.43;;
10894;SDS011;5500;49.886;8.074;2023-02-18T11:44:52;3.13;;;1.60;;
10894;SDS011;5500;49.886;8.074;2023-02-18T11:47:23;3.33;;;1.10;;
10894;SDS011;5500;49.886;8.074;2023-02-18T11:50:14;4.53;;;1.07;;
10894;SDS011;5500;49.886;8.074;2023-02-18T11:52:45;1.30;;;1.10;;
10894;SDS011;5500;49.886;8.074;2023-02-18T11:55:15;2.47;;;1.30;;
10894;SDS011;5500;49.886;8.074;2023-02-18T11:57:46;3.50;;;1.37;;
10894;SDS011;5500;49.886;8.074;2023-02-18T12:00:19;3.23;;;1.10;;
10894;SDS011;5500;49.886;8.074;2023-02-18T12:02:49;2.13;;;1.17;;
10894;SDS011;5500;49.886;8.074;2023-02-18T12:05:20;1.87;;;1.13;;
10894;SDS011;5500;49.886;8.074;2023-02-18T12:07:51;3.10;;;1.13;;
10894;SDS011;5500;49.886;8.074;2023-02-18T12:10:22;1.93;;;1.30;;
10894;SDS011;5500;49.886;8.074;2023-02-18T12:12:55;2.43;;;1.30;;
10894;SDS011;5500;49.886;8.074;2023-02-18T12:15:30;1.73;;;1.03;;
10894;SDS011;5500;49.886;8.074;2023-02-18T12:18:12;1.20;;;1.10;;
10894;SDS011;5500;49.886;8.074;2023-02-18T12:20:58;1.37;;;1.20;;
10894;SDS011;5500;49.886;8.074;2023-02-18T12:23:35;1.20;;;1.03;;
10894;SDS011;5500;49.886;8.074;2023-02-18T12:26:07;2.43;;;1.30;;
10894;SDS011;5500;49.886;8.074;2023-02-18T12:28:48;1.87;;;1.43;;
10894;SDS011;5500;49.886;8.074;2023-02-18T12:31:33;2.23;;;1.30;;
10894;SDS011;5500;49.886;8.074;2023-02-18T12:34:15;2.33;;;1.57;;
10894;SDS011;5500;49.886;8.074;2023-02-18T12:36:54;2.13;;;1.60;;
10894;SDS011;5500;49.886;8.074;2023-02-18T12:39:32;3.07;;;1.40;;
10894;SDS011;5500;49.886;8.074;2023-02-18T12:42:17;2.13;;;1.40;;
10894;SDS011;5500;49.886;8.074;2023-02-18T12:45:01;2.20;;;1.43;;
10894;SDS011;5500;49.886;8.074;2023-02-18T12:47:48;2.33;;;1.43;;
10894;SDS011;5500;49.886;8.074;2023-02-18T12:50:43;2.90;;;1.70;;
10894;SDS011;5500;49.886;8.074;2023-02-18T12:53:33;2.33;;;1.60;;
10894;SDS011;5500;49.886;8.074;2023-02-18T12:56:24;2.77;;;1.60;;
10894;SDS011;5500;49.886;8.074;2023-02-18T12:59:06;1.50;;;1.37;;
10894;SDS011;5500;49.886;8.074;2023-02-18T13:01:41;2.30;;;1.50;;
10894;SDS011;5500;49.886;8.074;2023-02-18T13:04:18;2.67;;;1.70;;
10894;SDS011;5500;49.886;8.074;2023-02-18T13:07:04;4.27;;;1.70;;
10894;SDS011;5500;49.886;8.074;2023-02-18T13:09:48;1.83;;;1.70;;
10894;SDS011;5500;49.886;8.074;2023-02-18T13:12:24;4.60;;;1.70;;
10894;SDS011;5500;49.886;8.074;2023-02-18T13:14:58;3.10;;;1.60;;
10894;SDS011;5500;49.886;8.074;2023-02-18T13:17:28;4.00;;;1.40;;
10894;SDS011;5500;49.886;8.074;2023-02-18T13:20:00;2.50;;;1.60;;
10894;SDS011;5500;49.886;8.074;2023-02-18T13:22:29;2.60;;;1.50;;
10894;SDS011;5500;49.886;8.074;2023-02-18T13:24:58;3.20;;;1.50;;
10894;SDS011;5500;49.886;8.074;2023-02-18T13:27:30;3.83;;;1.70;;
10894;SDS011;5500;49.886;8.074;2023-02-18T13:30:12;2.90;;;1.53;;
10894;SDS011;5500;49.886;8.074;2023-02-18T13:32:47;2.43;;;1.40;;
10894;SDS011;5500;49.886;8.074;2023-02-18T13:35:21;2.70;;;1.40;;
10894;SDS011;5500;49.886;8.074;2023-02-18T13:37:55;4.10;;;1.47;;
10894;SDS011;5500;49.886;8.074;2023-02-18T13:40:30;2.20;;;1.40;;
10894;SDS011;5500;49.886;8.074;2023-02-18T13:48:39;1.43;;;1.33;;
10894;SDS011;5500;49.886;8.074;2023-02-18T13:51:10;4.50;;;1.40;;
10894;SDS011;5500;49.886;8.074;2023-02-18T13:53:39;2.23;;;1.40;;
10894;SDS011;5500;49.886;8.074;2023-02-18T13:56:09;1.87;;;1.43;;
10894;SDS011;5500;49.886;8.074;2023-02-18T13:58:40;3.13;;;1.60;;
10894;SDS011;5500;49.886;8.074;2023-02-18T14:01:13;2.67;;;1.53;;
10894;SDS011;5500;49.886;8.074;2023-02-18T14:03:51;2.60;;;1.47;;
10894;SDS011;5500;49.886;8.074;2023-02-18T14:06:20;1.87;;;1.33;;
10894;SDS011;5500;49.886;8.074;2023-02-18T14:08:50;2.77;;;1.50;;
10894;SDS011;5500;49.886;8.074;2023-02-18T14:11:38;3.30;;;1.60;;
10894;SDS011;5500;49.886;8.074;2023-02-18T14:14:28;3.97;;;1.30;;
10894;SDS011;5500;49.886;8.074;2023-02-18T14:17:13;1.53;;;1.13;;
10894;SDS011;5500;49.886;8.074;2023-02-18T14:22:59;2.30;;;1.50;;
10894;SDS011;5500;49.886;8.074;2023-02-18T14:25:32;1.37;;;1.27;;
10894;SDS011;5500;49.886;8.074;2023-02-18T14:28:03;2.20;;;1.10;;
10894;SDS011;5500;49.886;8.074;2023-02-18T14:31:27;2.60;;;1.30;;
10894;SDS011;5500;49.886;8.074;2023-02-18T14:34:29;8.27;;;1.20;;
10894;SDS011;5500;49.886;8.074;2023-02-18T14:37:20;2.30;;;1.20;;
10894;SDS011;5500;49.886;8.074;2023-02-18T14:40:01;1.87;;;0.87;;
10894;SDS011;5500;49.886;8.074;2023-02-18T14:42:40;2.30;;;1.33;;
10894;SDS011;5500;49.886;8.074;2023-02-18T14:45:14;1.40;;;1.20;;
10894;SDS011;5500;49.886;8.074;2023-02-18T14:48:01;5.50;;;1.37;;
10894;SDS011;5500;49.886;8.074;2023-02-18T14:50:41;2.87;;;1.17;;
10894;SDS011;5500;49.886;8.074;2023-02-18T14:53:11;1.20;;;0.90;;
10894;SDS011;5500;49.886;8.074;2023-02-18T14:55:44;1.70;;;1.20;;
10894;SDS011;5500;49.886;8.074;2023-02-18T14:58:15;1.90;;;1.30;;
10894;SDS011;5500;49.886;8.074;2023-02-18T15:00:50;3.50;;;1.30;;
10894;SDS011;5500;49.886;8.074;2023-02-18T15:03:19;0.93;;;0.70;;
10894;SDS011;5500;49.886;8.074;2023-02-18T15:05:48;1.93;;;1.30;;
10894;SDS011;5500;49.886;8.074;2023-02-18T15:08:17;1.97;;;1.00;;
10894;SDS011;5500;49.886;8.074;2023-02-18T15:10:47;1.23;;;1.13;;
10894;SDS011;5500;49.886;8.074;2023-02-18T15:13:17;2.43;;;1.00;;
10894;SDS011;5500;49.886;8.074;2023-02-18T15:15:46;1.37;;;1.00;;
10894;SDS011;5500;49.886;8.074;2023-02-18T15:18:22;3.27;;;1.30;;
10894;SDS011;5500;49.886;8.074;2023-02-18T15:20:59;1.33;;;1.00;;
10894;SDS011;5500;49.886;8.074;2023-02-18T15:23:27;1.30;;;1.13;;
10894;SDS011;5500;49.886;8.074;2023-02-18T15:25:55;0.87;;;0.87;;
10894;SDS011;5500;49.886;8.074;2023-02-18T15:28:25;1.13;;;0.97;;
10894;SDS011;5500;49.886;8.074;2023-02-18T15:30:55;2.70;;;1.50;;
10894;SDS011;5500;49.886;8.074;2023-02-18T15:33:25;1.20;;;1.10;;
10894;SDS011;5500;49.886;8.074;2023-02-18T15:35:59;1.80;;;1.20;;
10894;SDS011;5500;49.886;8.074;2023-02-18T15:38:30;2.40;;;1.20;;
10894;SDS011;5500;49.886;8.074;2023-02-18T15:40:58;3.20;;;1.40;;
10894;SDS011;5500;49.886;8.074;2023-02-18T15:43:26;2.40;;;1.33;;
10894;SDS011;5500;49.886;8.074;2023-02-18T15:45:55;1.47;;;1.20;;
10894;SDS011;5500;49.886;8.074;2023-02-18T15:48:28;2.50;;;1.60;;
10894;SDS011;5500;49.886;8.074;2023-02-18T15:51:01;2.37;;;1.43;;
10894;SDS011;5500;49.886;8.074;2023-02-18T15:53:41;1.57;;;1.40;;
10894;SDS011;5500;49.886;8.074;2023-02-18T15:56:13;1.30;;;1.20;;
10894;SDS011;5500;49.886;8.074;2023-02-18T15:58:47;2.37;;;1.57;;
10894;SDS011;5500;49.886;8.074;2023-02-18T16:01:23;2.63;;;1.70;;